createdAt,value
2022-10-11T00:02:00.242Z,15.70
2022-10-11T00:04:27.796Z,15.63
2022-10-11T00:06:55.090Z,15.64
2022-10-11T00:09:22.541Z,15.63
2022-10-11T00:11:50.088Z,15.58
2022-10-11T00:14:17.409Z,15.65
2022-10-11T00:16:44.751Z,15.63
2022-10-11T00:19:12.302Z,15.62
2022-10-11T00:21:39.612Z,15.63
2022-10-11T00:24:07.034Z,15.58
2022-10-11T00:26:34.703Z,15.56
2022-10-11T00:29:02.236Z,15.43
2022-10-11T00:31:34.687Z,15.38
2022-10-11T00:34:03.350Z,15.33
2022-10-11T00:36:30.704Z,15.29
2022-10-11T00:38:59.006Z,15.37
2022-10-11T00:41:26.608Z,15.37
2022-10-11T00:44:29.644Z,15.32
2022-10-11T00:47:09.537Z,15.17
2022-10-11T00:49:59.915Z,15.24
2022-10-11T00:52:33.426Z,15.22
2022-10-11T00:55:14.757Z,15.18
2022-10-11T00:57:44.371Z,15.02
2022-10-11T01:00:13.041Z,15.04
2022-10-11T01:02:40.977Z,15.01
2022-10-11T01:05:28.735Z,14.93
2022-10-11T01:07:59.283Z,14.79
2022-10-11T01:10:27.801Z,14.84
2022-10-11T01:13:40.508Z,14.73
2022-10-11T01:16:15.549Z,14.73
2022-10-11T01:19:27.320Z,14.64
2022-10-11T01:22:06.567Z,14.64
2022-10-11T01:24:44.791Z,14.68
2022-10-11T01:27:38.856Z,14.63
2022-10-11T01:30:22.630Z,14.55
2022-10-11T01:33:05.221Z,14.59
2022-10-11T01:35:42.750Z,14.47
2022-10-11T01:38:14.548Z,14.45
2022-10-11T01:40:55.448Z,14.60
2022-10-11T01:43:23.964Z,14.63
2022-10-11T01:45:52.625Z,14.56
2022-10-11T01:48:20.301Z,14.48
2022-10-11T01:50:50.697Z,14.40
2022-10-11T01:53:22.920Z,14.42
2022-10-11T01:55:55.594Z,14.50
2022-10-11T01:58:32.459Z,14.42
2022-10-11T02:01:44.864Z,14.33
2022-10-11T02:04:19.473Z,14.19
2022-10-11T02:07:00.815Z,14.18
2022-10-11T02:09:43.184Z,14.20
2022-10-11T02:12:14.468Z,14.26
2022-10-11T02:14:44.288Z,14.22
2022-10-11T02:17:17.980Z,14.19
2022-10-11T02:19:48.172Z,14.24
2022-10-11T02:22:19.500Z,14.19
2022-10-11T02:24:50.364Z,14.21
2022-10-11T02:27:20.588Z,14.10
2022-10-11T02:29:48.473Z,14.20
2022-10-11T02:32:17.661Z,14.06
2022-10-11T02:34:49.116Z,14.10
2022-10-11T02:37:27.876Z,14.00
2022-10-11T02:40:07.237Z,14.04
2022-10-11T02:42:38.934Z,14.05
2022-10-11T02:45:13.022Z,13.93
2022-10-11T02:47:41.491Z,13.97
2022-10-11T02:50:11.504Z,13.91
2022-10-11T02:52:38.884Z,13.95
2022-10-11T02:55:07.512Z,13.92
2022-10-11T02:57:34.815Z,13.85
2022-10-11T03:00:02.400Z,13.99
2022-10-11T03:02:30.039Z,13.97
2022-10-11T03:04:57.583Z,13.94
2022-10-11T03:07:24.887Z,13.97
2022-10-11T03:09:52.524Z,14.01
2022-10-11T03:12:19.876Z,13.93
2022-10-11T03:14:47.188Z,13.84
2022-10-11T03:17:35.140Z,13.97
2022-10-11T03:20:02.074Z,13.98
2022-10-11T03:22:29.632Z,13.85
2022-10-11T03:25:02.513Z,13.82
2022-10-11T03:27:32.714Z,13.93
2022-10-11T03:30:00.298Z,13.94
2022-10-11T03:32:27.621Z,14.00
2022-10-11T03:34:55.261Z,13.70
2022-10-11T03:37:22.609Z,13.84
2022-10-11T03:39:50.265Z,13.80
2022-10-11T03:42:17.907Z,13.79
2022-10-11T03:44:45.245Z,13.85
2022-10-11T03:47:12.760Z,13.87
2022-10-11T03:49:43.614Z,13.87
2022-10-11T03:52:11.697Z,13.85
2022-10-11T03:54:39.000Z,13.90
2022-10-11T03:57:07.239Z,13.93
2022-10-11T03:59:34.548Z,13.89
2022-10-11T04:02:02.008Z,13.92
2022-10-11T04:04:29.633Z,14.07
2022-10-11T04:06:57.020Z,14.01
2022-10-11T04:09:24.453Z,13.99
2022-10-11T04:11:52.106Z,14.02
2022-10-11T04:14:19.408Z,14.08
2022-10-11T04:16:46.715Z,14.05
2022-10-11T04:19:14.271Z,14.04
2022-10-11T04:21:41.562Z,14.07
2022-10-11T04:24:11.103Z,14.19
2022-10-11T04:26:38.653Z,14.08
2022-10-11T04:29:06.119Z,14.04
2022-10-11T04:31:33.441Z,14.23
2022-10-11T04:34:01.135Z,14.13
2022-10-11T04:36:28.509Z,14.07
2022-10-11T04:38:56.234Z,14.09
2022-10-11T04:41:23.823Z,14.23
2022-10-11T04:43:51.116Z,14.08
2022-10-11T04:46:18.414Z,14.30
2022-10-11T04:48:45.971Z,14.34
2022-10-11T04:51:13.255Z,14.21
2022-10-11T04:53:40.548Z,14.10
2022-10-11T04:56:11.537Z,14.21
2022-10-11T04:58:40.944Z,14.12
2022-10-11T05:01:09.699Z,14.09
2022-10-11T05:03:37.746Z,14.16
2022-10-11T05:06:06.305Z,14.19
2022-10-11T05:08:34.125Z,14.12
2022-10-11T05:11:04.027Z,14.09
2022-10-11T05:13:32.059Z,14.23
2022-10-11T05:15:59.622Z,14.14
2022-10-11T05:18:27.105Z,13.98
2022-10-11T05:21:23.838Z,14.06
2022-10-11T05:23:52.855Z,14.13
2022-10-11T05:26:20.448Z,14.09
2022-10-11T05:28:48.150Z,14.02
2022-10-11T05:31:16.233Z,14.11
2022-10-11T05:33:43.577Z,14.13
2022-10-11T05:36:11.404Z,14.16
2022-10-11T05:38:39.455Z,14.21
2022-10-11T05:41:09.181Z,14.35
2022-10-11T05:43:36.516Z,14.47
2022-10-11T05:46:04.363Z,14.53
2022-10-11T05:48:31.805Z,14.50
2022-10-11T05:51:03.537Z,14.58
2022-10-11T05:53:31.452Z,14.56
2022-10-11T05:55:59.546Z,14.51
2022-10-11T05:58:26.863Z,14.62
2022-10-11T06:00:56.696Z,14.66
2022-10-11T06:03:24.304Z,14.58
2022-10-11T06:05:56.501Z,14.70
2022-10-11T06:08:24.665Z,14.66
2022-10-11T06:10:52.044Z,14.78
2022-10-11T06:13:19.330Z,14.90
2022-10-11T06:15:46.875Z,14.90
2022-10-11T06:18:15.150Z,14.99
2022-10-11T06:20:42.464Z,15.01
2022-10-11T06:23:10.035Z,14.99
2022-10-11T06:25:37.345Z,14.89
2022-10-11T06:28:04.723Z,15.07
2022-10-11T06:30:32.292Z,14.97
2022-10-11T06:33:04.472Z,15.07
2022-10-11T06:35:32.470Z,15.15
2022-10-11T06:37:59.765Z,15.26
2022-10-11T06:40:27.104Z,15.37
2022-10-11T06:42:54.753Z,15.36
2022-10-11T06:45:22.278Z,15.45
2022-10-11T06:47:49.571Z,15.53
2022-10-11T06:50:25.879Z,15.55
2022-10-11T06:53:03.147Z,15.72
2022-10-11T06:55:31.908Z,15.80
2022-10-11T06:57:59.193Z,16.25
2022-10-11T07:00:26.851Z,16.32
2022-10-11T07:02:54.429Z,16.36
2022-10-11T07:05:21.727Z,16.43
2022-10-11T07:07:49.015Z,16.54
2022-10-11T07:10:16.633Z,16.70
2022-10-11T07:12:44.868Z,16.81
2022-10-11T07:15:12.270Z,16.91
2022-10-11T07:17:39.856Z,17.08
2022-10-11T07:20:07.564Z,17.13
2022-10-11T07:22:34.988Z,17.22
2022-10-11T07:25:02.958Z,17.34
2022-10-11T07:27:30.252Z,17.44
2022-10-11T07:29:57.681Z,17.44
2022-10-11T07:32:25.288Z,17.49
2022-10-11T07:34:52.550Z,17.58
2022-10-11T07:37:20.299Z,17.65
2022-10-11T07:39:49.147Z,17.75
2022-10-11T07:42:16.430Z,17.88
2022-10-11T07:44:43.768Z,17.84
2022-10-11T07:47:11.659Z,18.10
2022-10-11T07:49:38.996Z,17.99
2022-10-11T07:52:06.331Z,18.16
2022-10-11T07:54:33.868Z,18.27
2022-10-11T07:57:01.168Z,18.22
2022-10-11T07:59:28.557Z,18.28
2022-10-11T08:01:56.188Z,18.46
2022-10-11T08:04:23.774Z,18.54
2022-10-11T08:06:53.304Z,18.62
2022-10-11T08:09:20.862Z,18.60
2022-10-11T08:11:48.445Z,18.81
2022-10-11T08:14:15.821Z,18.98
2022-10-11T08:16:43.098Z,19.32
2022-10-11T08:19:10.829Z,19.42
2022-10-11T08:21:38.149Z,19.42
2022-10-11T08:24:06.086Z,19.61
2022-10-11T08:26:33.692Z,19.83
2022-10-11T08:29:04.343Z,19.95
2022-10-11T08:31:32.862Z,19.99
2022-10-11T08:34:00.870Z,20.06
2022-10-11T08:36:28.223Z,20.34
2022-10-11T08:38:55.527Z,20.43
2022-10-11T08:41:27.161Z,20.49
2022-10-11T08:43:57.519Z,20.57
2022-10-11T08:46:28.724Z,20.59
2022-10-11T08:48:56.135Z,20.63
2022-10-11T08:51:38.540Z,20.69
2022-10-11T08:54:31.170Z,20.78
2022-10-11T08:56:58.621Z,20.86
2022-10-11T08:59:35.089Z,20.78
2022-10-11T09:02:11.151Z,20.93
2022-10-11T09:04:39.229Z,21.12
2022-10-11T09:07:44.916Z,21.23
2022-10-11T09:10:31.193Z,21.24
2022-10-11T09:13:31.442Z,21.14
2022-10-11T09:16:10.916Z,21.12
2022-10-11T09:18:47.136Z,21.36
2022-10-11T09:21:48.364Z,21.45
2022-10-11T09:24:18.627Z,21.29
2022-10-11T09:26:52.134Z,21.44
2022-10-11T09:29:28.736Z,21.36
2022-10-11T09:31:57.323Z,21.61
2022-10-11T09:34:27.605Z,21.57
2022-10-11T09:37:03.766Z,21.58
2022-10-11T09:39:36.661Z,21.69
2022-10-11T09:42:09.611Z,21.42
2022-10-11T09:44:49.583Z,21.61
2022-10-11T09:47:27.542Z,21.69
2022-10-11T09:50:06.496Z,21.85
2022-10-11T09:52:33.866Z,22.17
2022-10-11T09:55:03.264Z,22.19
2022-10-11T09:57:32.599Z,22.14
2022-10-11T10:00:01.717Z,22.25
2022-10-11T10:02:48.768Z,22.55
2022-10-11T10:05:27.639Z,22.67
2022-10-11T10:08:09.848Z,22.78
2022-10-11T10:10:38.974Z,22.90
2022-10-11T10:13:29.085Z,22.90
2022-10-11T10:16:01.158Z,22.88
2022-10-11T10:18:37.377Z,23.01
2022-10-11T10:21:09.172Z,22.83
2022-10-11T10:23:37.336Z,22.88
2022-10-11T10:26:17.203Z,22.88
2022-10-11T10:29:04.073Z,23.06
2022-10-11T10:32:14.240Z,23.05
2022-10-11T10:35:37.228Z,22.86
2022-10-11T10:38:26.358Z,22.83
2022-10-11T10:40:58.030Z,22.91
2022-10-11T10:43:36.214Z,22.72
2022-10-11T10:46:18.091Z,22.61
2022-10-11T10:49:23.601Z,22.63
2022-10-11T10:51:50.899Z,22.51
2022-10-11T10:54:24.835Z,22.67
2022-10-11T10:57:31.567Z,22.56
2022-10-11T11:00:04.157Z,22.53
2022-10-11T11:02:59.590Z,22.58
2022-10-11T11:05:33.818Z,22.87
2022-10-11T11:08:15.336Z,23.00
2022-10-11T11:10:56.046Z,23.04
2022-10-11T11:13:41.857Z,23.13
2022-10-11T11:16:26.345Z,23.31
2022-10-11T11:18:57.139Z,23.29
2022-10-11T11:21:44.896Z,23.35
2022-10-11T11:25:05.844Z,23.38
2022-10-11T11:27:40.714Z,23.38
2022-10-11T11:30:17.275Z,23.45
2022-10-11T11:33:05.407Z,23.41
2022-10-11T11:35:53.815Z,23.52
2022-10-11T11:38:40.702Z,23.62
2022-10-11T11:41:14.649Z,23.58
2022-10-11T11:44:25.112Z,23.78
2022-10-11T11:47:01.688Z,23.66
2022-10-11T11:49:34.334Z,23.67
2022-10-11T11:52:04.301Z,23.71
2022-10-11T11:55:13.139Z,23.83
2022-10-11T11:57:52.459Z,23.80
2022-10-11T12:00:22.490Z,23.72
2022-10-11T12:02:56.248Z,23.71
2022-10-11T12:05:27.487Z,23.76
2022-10-11T12:08:08.314Z,23.38
2022-10-11T12:10:35.692Z,23.26
2022-10-11T12:13:09.284Z,23.42
2022-10-11T12:15:37.010Z,23.43
2022-10-11T12:18:15.485Z,23.27
2022-10-11T12:20:44.014Z,23.01
2022-10-11T12:23:29.969Z,23.00
2022-10-11T12:26:19.274Z,22.88
2022-10-11T12:29:05.847Z,23.09
2022-10-11T12:31:35.830Z,23.13
2022-10-11T12:34:09.523Z,23.16
2022-10-11T12:36:39.520Z,23.19
2022-10-11T12:39:19.314Z,23.21
2022-10-11T12:41:49.233Z,23.18
2022-10-11T12:44:26.269Z,23.05
2022-10-11T12:46:53.773Z,23.11
2022-10-11T12:49:31.071Z,23.02
2022-10-11T12:52:05.594Z,23.07
2022-10-11T12:54:45.258Z,22.93
2022-10-11T12:57:49.597Z,22.86
2022-10-11T13:00:32.506Z,22.93
2022-10-11T13:03:05.332Z,22.82
2022-10-11T13:05:43.211Z,22.71
2022-10-11T13:08:16.660Z,22.57
2022-10-11T13:10:45.351Z,22.49
2022-10-11T13:13:24.966Z,22.70
2022-10-11T13:15:54.529Z,22.54
2022-10-11T13:18:24.230Z,22.55
2022-10-11T13:20:51.527Z,22.59
2022-10-11T13:23:25.069Z,22.44
2022-10-11T13:25:52.957Z,22.71
2022-10-11T13:28:21.343Z,22.70
2022-10-11T13:30:54.983Z,22.59
2022-10-11T13:33:32.113Z,22.62
2022-10-11T13:35:59.855Z,22.55
2022-10-11T13:38:34.507Z,22.51
2022-10-11T13:41:04.695Z,22.49
2022-10-11T13:43:32.602Z,22.51
2022-10-11T13:46:01.545Z,22.48
2022-10-11T13:48:31.850Z,22.53
2022-10-11T13:51:07.158Z,22.64
2022-10-11T13:53:34.602Z,22.50
2022-10-11T13:56:05.507Z,22.52
2022-10-11T13:58:40.391Z,22.46
2022-10-11T14:01:17.315Z,22.50
2022-10-11T14:03:48.479Z,22.45
2022-10-11T14:06:15.811Z,22.47
2022-10-11T14:08:44.435Z,22.43
2022-10-11T14:11:13.516Z,22.39
2022-10-11T14:13:44.391Z,22.42
2022-10-11T14:16:21.023Z,22.41
2022-10-11T14:18:50.712Z,22.41
2022-10-11T14:21:35.432Z,22.35
2022-10-11T14:24:08.047Z,22.39
2022-10-11T14:26:42.215Z,22.23
2022-10-11T14:29:17.983Z,22.08
2022-10-11T14:31:45.563Z,22.17
2022-10-11T14:34:20.883Z,22.27
2022-10-11T14:36:49.038Z,22.18
2022-10-11T14:39:19.341Z,22.06
2022-10-11T14:41:47.098Z,22.05
2022-10-11T14:44:16.621Z,21.98
2022-10-11T14:46:45.461Z,21.86
2022-10-11T14:49:22.060Z,21.81
2022-10-11T14:51:51.026Z,21.79
2022-10-11T14:54:24.180Z,21.77
2022-10-11T14:56:53.256Z,21.70
2022-10-11T14:59:22.991Z,21.67
2022-10-11T15:01:54.232Z,21.65
2022-10-11T15:04:23.635Z,21.59
2022-10-11T15:06:52.172Z,21.58
2022-10-11T15:09:23.123Z,21.57
2022-10-11T15:11:52.628Z,21.63
2022-10-11T15:14:20.162Z,21.56
2022-10-11T15:16:47.635Z,21.55
2022-10-11T15:19:17.720Z,21.54
2022-10-11T15:21:45.583Z,21.51
2022-10-11T15:24:13.091Z,21.42
2022-10-11T15:26:40.817Z,21.35
2022-10-11T15:29:11.719Z,21.35
2022-10-11T15:31:39.572Z,21.40
2022-10-11T15:34:07.265Z,21.30
2022-10-11T15:36:34.624Z,21.27
2022-10-11T15:39:01.914Z,21.21
2022-10-11T15:41:29.490Z,21.16
2022-10-11T15:43:56.824Z,21.18
2022-10-11T15:46:24.168Z,21.20
2022-10-11T15:48:52.256Z,21.19
2022-10-11T15:51:19.595Z,21.15
2022-10-11T15:53:47.042Z,21.15
2022-10-11T15:56:18.611Z,21.09
2022-10-11T15:58:46.089Z,21.02
2022-10-11T16:01:19.358Z,20.94
2022-10-11T16:03:48.979Z,20.81
2022-10-11T16:06:17.368Z,20.73
2022-10-11T16:08:44.695Z,20.79
2022-10-11T16:11:12.691Z,20.73
2022-10-11T16:13:40.404Z,20.70
2022-10-11T16:16:09.681Z,20.69
2022-10-11T16:18:37.876Z,20.49
2022-10-11T16:21:08.994Z,20.40
2022-10-11T16:23:38.207Z,20.27
2022-10-11T16:26:08.556Z,20.12
2022-10-11T16:28:36.443Z,20.05
2022-10-11T16:31:08.545Z,19.95
2022-10-11T16:33:45.240Z,19.95
2022-10-11T16:36:36.463Z,19.88
2022-10-11T16:39:07.794Z,19.88
2022-10-11T16:41:35.217Z,19.89
2022-10-11T16:44:03.429Z,19.64
2022-10-11T16:46:32.499Z,19.56
2022-10-11T16:48:59.842Z,19.63
2022-10-11T16:51:27.163Z,19.66
2022-10-11T16:53:54.908Z,19.51
2022-10-11T16:56:24.103Z,19.43
2022-10-11T16:58:54.237Z,19.29
2022-10-11T17:01:22.031Z,19.31
2022-10-11T17:03:50.002Z,19.25
2022-10-11T17:06:18.257Z,19.19
2022-10-11T17:08:46.268Z,19.21
2022-10-11T17:11:13.659Z,19.19
2022-10-11T17:13:40.961Z,19.03
2022-10-11T17:16:08.919Z,18.95
2022-10-11T17:18:36.593Z,18.93
2022-10-11T17:21:06.630Z,18.89
2022-10-11T17:23:35.514Z,18.95
2022-10-11T17:26:11.215Z,18.69
2022-10-11T17:28:39.422Z,18.73
2022-10-11T17:31:07.817Z,18.70
2022-10-11T17:33:35.632Z,18.60
2022-10-11T17:36:13.203Z,18.65
2022-10-11T17:38:40.503Z,18.74
2022-10-11T17:41:08.976Z,18.73
2022-10-11T17:43:37.133Z,18.70
2022-10-11T17:46:06.332Z,18.71
2022-10-11T17:48:36.522Z,18.69
2022-10-11T17:51:07.382Z,18.73
2022-10-11T17:53:35.622Z,18.74
2022-10-11T17:56:07.832Z,18.76
2022-10-11T17:58:35.592Z,18.80
2022-10-11T18:01:08.887Z,18.75
2022-10-11T18:03:37.319Z,18.75
2022-10-11T18:06:06.449Z,18.78
2022-10-11T18:08:39.981Z,18.77
2022-10-11T18:11:13.096Z,18.83
2022-10-11T18:13:45.564Z,18.81
2022-10-11T18:16:14.734Z,18.83
2022-10-11T18:18:42.369Z,18.87
2022-10-11T18:21:10.041Z,18.83
2022-10-11T18:23:38.338Z,18.90
2022-10-11T18:26:13.555Z,18.87
2022-10-11T18:28:41.347Z,18.91
2022-10-11T18:31:13.335Z,18.98
2022-10-11T18:33:42.264Z,18.94
2022-10-11T18:36:10.953Z,18.98
2022-10-11T18:38:39.653Z,18.84
2022-10-11T18:41:08.814Z,18.80
2022-10-11T18:43:36.984Z,18.75
2022-10-11T18:46:12.623Z,18.64
2022-10-11T18:48:41.996Z,18.67
2022-10-11T18:51:12.404Z,18.76
2022-10-11T18:53:40.314Z,18.77
2022-10-11T18:56:09.610Z,18.71
2022-10-11T18:58:38.832Z,18.61
2022-10-11T19:01:17.631Z,18.65
2022-10-11T19:04:52.525Z,19.23
2022-10-11T19:07:20.901Z,19.23
2022-10-11T19:09:49.471Z,18.51
2022-10-11T19:12:17.280Z,18.47
2022-10-11T19:14:44.841Z,18.40
2022-10-11T19:17:12.664Z,18.45
2022-10-11T19:19:39.975Z,18.37
2022-10-11T19:22:07.565Z,18.31
2022-10-11T19:24:34.900Z,18.22
2022-10-11T19:27:03.119Z,18.21
2022-10-11T19:29:31.429Z,18.19
2022-10-11T19:32:00.104Z,18.15
2022-10-11T19:34:28.047Z,18.03
2022-10-11T19:36:56.510Z,18.09
2022-10-11T19:39:24.810Z,18.07
2022-10-11T19:41:52.579Z,17.98
2022-10-11T19:44:20.331Z,18.01
2022-10-11T19:46:52.474Z,18.03
2022-10-11T19:49:25.715Z,18.06
2022-10-11T19:51:53.736Z,17.95
2022-10-11T19:54:21.295Z,17.93
2022-10-11T19:56:48.704Z,17.95
2022-10-11T19:59:16.268Z,17.91
2022-10-11T20:01:47.914Z,18.02
2022-10-11T20:04:39.594Z,18.01
2022-10-11T20:07:04.497Z,17.90
2022-10-11T20:09:32.058Z,17.98
2022-10-11T20:11:59.393Z,17.93
2022-10-11T20:14:26.709Z,17.86
2022-10-11T20:16:54.268Z,17.90
2022-10-11T20:19:26.202Z,17.78
2022-10-11T20:21:55.447Z,17.80
2022-10-11T20:24:23.010Z,17.77
2022-10-11T20:26:50.302Z,17.79
2022-10-11T20:29:18.057Z,17.76
2022-10-11T20:31:45.350Z,17.79
2022-10-11T20:34:13.232Z,17.75
2022-10-11T20:36:41.209Z,17.67
2022-10-11T20:39:09.636Z,17.55
2022-10-11T20:41:39.975Z,17.62
2022-10-11T20:44:08.969Z,17.70
2022-10-11T20:46:38.311Z,17.69
2022-10-11T20:49:08.303Z,17.65
2022-10-11T20:51:37.185Z,17.45
2022-10-11T20:54:04.927Z,17.45
2022-10-11T20:56:33.765Z,17.54
2022-10-11T20:59:01.445Z,17.40
2022-10-11T21:01:34.554Z,17.45
2022-10-11T21:04:02.679Z,17.39
2022-10-11T21:06:31.108Z,17.30
2022-10-11T21:08:59.415Z,17.26
2022-10-11T21:11:28.511Z,17.20
2022-10-11T21:13:57.039Z,17.05
2022-10-11T21:16:25.171Z,17.01
2022-10-11T21:18:54.363Z,17.04
2022-10-11T21:21:23.788Z,17.08
2022-10-11T21:23:55.482Z,16.99
2022-10-11T21:26:23.081Z,16.90
2022-10-11T21:28:50.451Z,16.86
2022-10-11T21:31:19.693Z,16.77
2022-10-11T21:33:47.280Z,16.84
2022-10-11T21:36:17.123Z,16.76
2022-10-11T21:38:44.638Z,16.68
2022-10-11T21:41:15.500Z,16.65
2022-10-11T21:43:42.978Z,16.64
2022-10-11T21:46:20.364Z,16.62
2022-10-11T21:48:49.932Z,16.54
2022-10-11T21:51:27.745Z,16.33
2022-10-11T21:53:57.411Z,16.38
2022-10-11T21:56:24.686Z,16.30
2022-10-11T21:58:51.981Z,16.33
2022-10-11T22:01:21.242Z,16.32
2022-10-11T22:03:48.896Z,16.26
2022-10-11T22:06:16.878Z,16.27
2022-10-11T22:08:44.322Z,16.22
2022-10-11T22:11:12.131Z,16.01
2022-10-11T22:13:39.387Z,16.03
2022-10-11T22:16:09.280Z,16.07
2022-10-11T22:18:37.258Z,16.05
2022-10-11T22:21:07.003Z,16.06
2022-10-11T22:23:34.587Z,16.16
2022-10-11T22:26:07.001Z,16.08
2022-10-11T22:28:35.008Z,15.97
2022-10-11T22:31:05.188Z,15.95
2022-10-11T22:33:32.841Z,16.00
2022-10-11T22:36:02.063Z,16.03
2022-10-11T22:38:29.749Z,16.04
2022-10-11T22:40:59.830Z,15.98
2022-10-11T22:43:27.204Z,15.95
2022-10-11T22:45:54.769Z,15.88
2022-10-11T22:48:22.132Z,15.93
2022-10-11T22:50:49.466Z,15.86
2022-10-11T22:53:17.084Z,15.97
2022-10-11T22:55:44.629Z,15.93
2022-10-11T22:58:11.962Z,15.97
2022-10-11T23:00:39.594Z,15.81
2022-10-11T23:03:09.619Z,15.74
2022-10-11T23:05:36.938Z,15.74
2022-10-11T23:08:05.845Z,15.73
2022-10-11T23:10:33.132Z,15.81
2022-10-11T23:13:00.424Z,15.77
2022-10-11T23:15:27.984Z,15.73
2022-10-11T23:17:55.279Z,15.76
2022-10-11T23:20:22.558Z,15.66
2022-10-11T23:22:50.115Z,15.65
2022-10-11T23:25:17.389Z,15.65
2022-10-11T23:27:44.659Z,15.64
2022-10-11T23:30:12.947Z,15.58
2022-10-11T23:32:40.254Z,15.64
2022-10-11T23:35:08.052Z,15.63
2022-10-11T23:37:35.975Z,15.57
2022-10-11T23:40:04.144Z,15.53
2022-10-11T23:42:31.432Z,15.48
2022-10-11T23:44:59.220Z,15.50
2022-10-11T23:47:26.500Z,15.47
2022-10-11T23:49:53.802Z,15.46
2022-10-11T23:52:21.484Z,15.40
2022-10-11T23:54:48.866Z,15.42
2022-10-11T23:57:16.224Z,15.47
2022-10-11T23:59:43.787Z,15.45
